La Algaba, Spain
Current Conditions -  °F | °C
As of 11:00 PM on Sunday 23 Nov 2014 (Local Time) from LEZL Reporting Station
Scattered Clouds Scattered Clouds  
Wind Chill: 61°   Ceiling: Unl
Heat Index: 61°   Visibility: 6mi
Dew Point: 61°   Wind: 8mph
Humidity: 100%   Direction: 60°ENE
Pressure: 29.85"   Gusts: NA
Location:  37.46°N, 6.01°W
Report Text: LEZL 232200Z 06007KT 9999 FEW030 SCT040 16/16 Q1011 NOSIG
Loading
Personal Weather Stations






























Interactive Weather Map New forecast layout! Learn more

10-Day Weather Forecast

Advertisements
Track Severe Weather on mobile